createdAt,value
2019-03-18T00:02:09.344Z,51.18
2019-03-18T00:04:42.652Z,49.35
2019-03-18T00:07:16.108Z,51.65
2019-03-18T00:09:50.545Z,53.35
2019-03-18T00:12:23.964Z,54.66
2019-03-18T00:15:01.407Z,55.80
2019-03-18T00:17:32.396Z,56.75
2019-03-18T00:20:05.914Z,57.73
2019-03-18T00:22:39.212Z,58.43
2019-03-18T00:25:13.020Z,59.33
2019-03-18T00:27:46.379Z,60.07
2019-03-18T00:30:20.013Z,60.85
2019-03-18T00:32:53.326Z,61.29
2019-03-18T00:35:26.654Z,61.97
2019-03-18T00:37:59.963Z,63.03
2019-03-18T00:40:33.942Z,52.52
2019-03-18T00:43:07.103Z,47.74
2019-03-18T00:45:41.897Z,49.75
2019-03-18T00:48:15.064Z,52.03
2019-03-18T00:50:48.237Z,53.44
2019-03-18T00:53:21.724Z,54.85
2019-03-18T00:55:55.220Z,55.81
2019-03-18T00:58:28.364Z,56.78
2019-03-18T01:01:01.556Z,57.91
2019-03-18T01:03:34.712Z,58.93
2019-03-18T01:06:08.836Z,59.85
2019-03-18T01:08:42.861Z,60.50
2019-03-18T01:11:18.077Z,61.32
2019-03-18T01:13:51.280Z,62.48
2019-03-18T01:16:24.596Z,63.11
2019-03-18T01:18:57.799Z,52.21
2019-03-18T01:21:31.964Z,48.24
2019-03-18T01:24:05.999Z,50.36
2019-03-18T01:26:39.291Z,52.48
2019-03-18T01:29:12.418Z,54.14
2019-03-18T01:31:45.622Z,55.44
2019-03-18T01:34:18.788Z,56.50
2019-03-18T01:36:51.987Z,57.45
2019-03-18T01:39:25.203Z,58.33
2019-03-18T01:41:58.396Z,59.24
2019-03-18T01:44:32.667Z,59.88
2019-03-18T01:47:05.848Z,60.77
2019-03-18T01:49:39.071Z,61.56
2019-03-18T01:52:12.272Z,61.93
2019-03-18T01:54:45.456Z,63.23
2019-03-18T01:57:18.672Z,52.30
2019-03-18T01:59:51.887Z,47.94
2019-03-18T02:02:25.055Z,49.84
2019-03-18T02:04:58.219Z,52.00
2019-03-18T02:07:31.373Z,53.59
2019-03-18T02:10:04.627Z,54.58
2019-03-18T02:12:37.767Z,55.78
2019-03-18T02:15:11.102Z,56.89
2019-03-18T02:17:44.862Z,57.38
2019-03-18T02:20:19.766Z,58.22
2019-03-18T02:22:52.953Z,59.10
2019-03-18T02:25:26.201Z,59.73
2019-03-18T02:27:59.445Z,60.19
2019-03-18T02:30:32.620Z,60.96
2019-03-18T02:33:05.857Z,61.64
2019-03-18T02:35:39.000Z,62.15
2019-03-18T02:38:12.289Z,62.30
2019-03-18T02:40:45.460Z,50.92
2019-03-18T02:43:18.629Z,47.98
2019-03-18T02:46:08.993Z,50.16
2019-03-18T02:48:27.648Z,52.24
2019-03-18T02:51:00.833Z,53.48
2019-03-18T02:53:34.381Z,54.90
2019-03-18T02:56:07.712Z,55.78
2019-03-18T02:58:40.885Z,56.53
2019-03-18T03:01:14.078Z,57.60
2019-03-18T03:03:48.203Z,58.46
2019-03-18T03:06:21.382Z,59.02
2019-03-18T03:08:54.595Z,59.74
2019-03-18T03:11:27.771Z,60.20
2019-03-18T03:14:00.955Z,60.53
2019-03-18T03:16:34.133Z,61.32
2019-03-18T03:19:07.340Z,61.79
2019-03-18T03:21:40.479Z,62.28
2019-03-18T03:24:13.790Z,63.34
2019-03-18T03:26:46.930Z,53.43
2019-03-18T03:29:20.155Z,47.91
2019-03-18T03:31:53.354Z,49.85
2019-03-18T03:34:26.572Z,51.71
2019-03-18T03:36:59.752Z,53.37
2019-03-18T03:39:33.022Z,54.75
2019-03-18T03:42:06.231Z,55.68
2019-03-18T03:44:39.683Z,56.75
2019-03-18T03:47:12.841Z,57.57
2019-03-18T03:49:46.377Z,58.28
2019-03-18T03:52:19.829Z,59.12
2019-03-18T03:54:53.206Z,59.73
2019-03-18T03:57:26.314Z,60.22
2019-03-18T03:59:59.639Z,61.19
2019-03-18T04:02:34.214Z,61.84
2019-03-18T04:05:07.656Z,62.83
2019-03-18T04:07:40.938Z,53.17
2019-03-18T04:10:14.161Z,47.28
2019-03-18T04:12:47.720Z,49.39
2019-03-18T04:15:20.951Z,51.44
2019-03-18T04:17:54.148Z,53.01
2019-03-18T04:20:27.342Z,54.28
2019-03-18T04:23:01.416Z,55.23
2019-03-18T04:25:34.957Z,56.03
2019-03-18T04:28:08.114Z,56.88
2019-03-18T04:30:41.740Z,58.04
2019-03-18T04:33:14.813Z,58.77
2019-03-18T04:35:47.991Z,59.56
2019-03-18T04:38:21.197Z,60.21
2019-03-18T04:40:54.552Z,60.85
2019-03-18T04:43:27.757Z,61.53
2019-03-18T04:46:01.347Z,62.09
2019-03-18T04:48:43.243Z,63.12
2019-03-18T04:51:20.652Z,52.39
2019-03-18T04:53:58.018Z,47.36
2019-03-18T04:56:31.871Z,49.59
2019-03-18T04:59:06.192Z,51.72
2019-03-18T05:01:55.476Z,53.30
2019-03-18T05:05:22.177Z,54.44
2019-03-18T05:07:59.994Z,55.94
2019-03-18T05:10:35.396Z,57.15
2019-03-18T05:13:13.019Z,57.98
2019-03-18T05:15:49.889Z,59.03
2019-03-18T05:18:26.514Z,59.93
2019-03-18T05:21:02.180Z,60.77
2019-03-18T05:23:37.945Z,61.57
2019-03-18T05:26:14.810Z,62.24
2019-03-18T05:28:50.125Z,63.20
2019-03-18T05:31:35.100Z,52.60
2019-03-18T05:34:18.173Z,47.52
2019-03-18T05:36:52.401Z,50.04
2019-03-18T05:39:39.536Z,52.05
2019-03-18T05:42:16.604Z,53.89
2019-03-18T05:44:50.919Z,55.15
2019-03-18T05:47:25.647Z,56.25
2019-03-18T05:49:59.250Z,57.33
2019-03-18T05:52:32.837Z,58.23
2019-03-18T05:55:07.657Z,58.77
2019-03-18T05:57:44.655Z,59.43
2019-03-18T06:00:19.739Z,60.18
2019-03-18T06:02:53.274Z,61.14
2019-03-18T06:05:26.925Z,61.53
2019-03-18T06:08:00.496Z,62.27
2019-03-18T06:10:34.715Z,61.93
2019-03-18T06:13:08.962Z,50.57
2019-03-18T06:15:43.257Z,47.32
2019-03-18T06:18:17.047Z,49.45
2019-03-18T06:20:50.840Z,51.66
2019-03-18T06:23:25.214Z,52.94
2019-03-18T06:25:59.021Z,54.34
2019-03-18T06:28:32.687Z,55.00
2019-03-18T06:31:06.428Z,56.01
2019-03-18T07:09:30.868Z,52.73
2019-03-18T07:25:01.929Z,57.49
2019-03-18T07:28:22.450Z,57.71
2019-03-18T07:39:19.239Z,57.82
2019-03-18T07:54:32.867Z,59.01
2019-03-18T08:05:16.631Z,61.57
2019-03-18T08:30:07.568Z,58.77
2019-03-18T10:20:44.214Z,57.30
2019-03-18T10:23:26.444Z,56.80
2019-03-18T10:26:13.856Z,56.72
2019-03-18T10:28:55.152Z,54.94
2019-03-18T10:32:03.969Z,55.20
2019-03-18T10:43:50.767Z,55.43
2019-03-18T10:47:35.790Z,55.04
2019-03-18T10:51:14.927Z,55.09
2019-03-18T10:54:35.459Z,55.21
2019-03-18T11:33:33.622Z,56.07
2019-03-18T11:37:09.924Z,55.57
2019-03-18T11:43:58.122Z,53.52
2019-03-18T11:55:40.196Z,52.33
2019-03-18T12:42:13.290Z,50.95
2019-03-18T12:52:21.653Z,50.62
2019-03-18T12:55:24.286Z,50.67
2019-03-18T12:59:16.588Z,51.20
2019-03-18T13:06:16.624Z,51.36
2019-03-18T13:09:29.187Z,51.84
2019-03-18T13:13:24.310Z,51.55
2019-03-18T13:16:27.935Z,50.50
2019-03-18T13:19:20.728Z,50.29
2019-03-18T13:22:08.222Z,50.75
2019-03-18T13:24:47.140Z,49.80
2019-03-18T13:27:30.582Z,49.67
2019-03-18T13:30:15.443Z,49.75
2019-03-18T13:50:41.756Z,50.45
2019-03-18T13:53:36.081Z,50.33
2019-03-18T13:56:12.317Z,50.29
2019-03-18T14:11:38.512Z,51.18
2019-03-18T14:14:38.038Z,51.19
2019-03-18T14:29:00.250Z,51.85
2019-03-18T14:32:31.378Z,52.23
2019-03-18T14:35:16.140Z,52.04
2019-03-18T14:37:53.543Z,52.16
2019-03-18T14:40:30.708Z,51.73
2019-03-18T14:43:37.868Z,51.52
2019-03-18T14:47:10.750Z,51.94
2019-03-18T15:09:19.104Z,51.10
2019-03-18T15:12:57.346Z,51.55
2019-03-18T15:16:47.850Z,50.49
2019-03-18T15:19:36.717Z,49.50
2019-03-18T15:22:14.864Z,48.83
2019-03-18T15:24:51.255Z,49.47
2019-03-18T16:18:48.444Z,49.97
2019-03-18T16:29:43.693Z,50.37
2019-03-18T16:32:17.012Z,50.71
2019-03-18T16:34:50.261Z,50.83
2019-03-18T16:37:23.412Z,51.10
2019-03-18T16:39:56.755Z,51.45
2019-03-18T16:42:30.131Z,51.61
2019-03-18T16:45:03.537Z,52.53
2019-03-18T16:47:36.900Z,51.93
2019-03-18T16:50:12.920Z,52.02
2019-03-18T16:52:46.200Z,52.15
2019-03-18T16:55:19.504Z,52.15
2019-03-18T16:58:02.885Z,52.46
2019-03-18T17:01:45.073Z,52.47
2019-03-18T17:04:49.674Z,52.90
2019-03-18T17:07:48.443Z,53.19
2019-03-18T17:10:29.177Z,53.54
2019-03-18T17:13:24.850Z,53.68
2019-03-18T17:16:07.774Z,53.82
2019-03-18T17:19:00.536Z,53.99
2019-03-18T17:21:41.045Z,54.28
2019-03-18T17:24:50.119Z,54.27
2019-03-18T17:28:03.156Z,54.09
2019-03-18T17:31:03.846Z,54.33
2019-03-18T17:34:28.005Z,54.13
2019-03-18T17:41:46.454Z,53.82
2019-03-18T17:44:30.779Z,53.60
2019-03-18T17:47:29.910Z,53.97
2019-03-18T17:50:06.310Z,53.97
2019-03-18T17:52:42.066Z,54.04
2019-03-18T17:55:16.732Z,54.14
2019-03-18T17:57:55.978Z,54.29
2019-03-18T18:00:40.776Z,54.53
2019-03-18T18:03:35.606Z,54.63
2019-03-18T18:06:59.085Z,54.76
2019-03-18T18:10:23.103Z,54.92
2019-03-18T18:13:16.243Z,55.09
2019-03-18T18:16:44.853Z,55.25
2019-03-18T18:19:47.324Z,55.58
2019-03-18T18:26:34.787Z,55.74
2019-03-18T18:29:13.247Z,55.99
2019-03-18T18:31:50.347Z,56.10
2019-03-18T18:34:24.313Z,56.27
2019-03-18T18:37:00.878Z,56.62
2019-03-18T18:39:55.585Z,56.57
2019-03-18T18:42:41.828Z,56.74
2019-03-18T18:58:40.294Z,57.32
2019-03-18T19:01:21.323Z,57.63
2019-03-18T19:03:55.394Z,57.79
2019-03-18T19:06:39.232Z,57.83
2019-03-18T19:10:08.450Z,58.06
2019-03-18T19:13:44.749Z,58.14
2019-03-18T19:16:20.123Z,58.34
2019-03-18T19:23:09.965Z,58.41
2019-03-18T19:26:21.327Z,58.64
2019-03-18T19:29:15.270Z,58.86
2019-03-18T19:35:21.147Z,59.19
2019-03-18T19:38:46.045Z,59.48
2019-03-18T19:41:29.202Z,59.49
2019-03-18T19:44:04.427Z,59.60
2019-03-18T19:46:48.017Z,59.67
2019-03-18T19:53:12.798Z,59.53
2019-03-18T19:55:48.897Z,59.81
2019-03-18T19:58:31.944Z,59.90
2019-03-18T20:01:14.076Z,59.80
2019-03-18T20:04:04.912Z,60.08
2019-03-18T20:07:00.012Z,60.21
2019-03-18T20:09:55.551Z,60.31
2019-03-18T20:13:16.983Z,60.51
2019-03-18T20:16:01.595Z,60.57
2019-03-18T20:18:58.704Z,60.79
2019-03-18T20:21:32.912Z,60.82
2019-03-18T20:24:09.820Z,61.16
2019-03-18T20:26:45.472Z,61.19
2019-03-18T20:29:21.476Z,61.38
2019-03-18T20:32:04.191Z,61.57
2019-03-18T20:34:47.768Z,61.64
2019-03-18T20:37:25.755Z,61.74
2019-03-18T20:40:31.568Z,62.09
2019-03-18T20:43:04.204Z,60.55
2019-03-18T20:45:44.364Z,52.14
2019-03-18T20:48:27.766Z,52.61
2019-03-18T20:51:13.470Z,54.03
2019-03-18T20:53:47.879Z,54.95
2019-03-18T20:56:26.355Z,55.58
2019-03-18T20:59:09.691Z,56.28
2019-03-18T21:01:48.569Z,56.62
2019-03-18T21:04:32.963Z,57.21
2019-03-18T21:07:43.625Z,57.86
2019-03-18T21:10:20.376Z,58.17
2019-03-18T21:13:01.809Z,58.54
2019-03-18T21:16:00.178Z,58.81
2019-03-18T21:18:49.664Z,59.10
2019-03-18T21:21:28.194Z,59.53
2019-03-18T21:27:47.947Z,60.03
2019-03-18T21:30:42.151Z,60.19
2019-03-18T21:34:14.658Z,60.40
2019-03-18T21:37:01.154Z,60.74
2019-03-18T21:39:42.897Z,60.92
2019-03-18T21:42:21.092Z,61.21
2019-03-18T21:44:57.347Z,61.47
2019-03-18T21:47:34.115Z,61.70
2019-03-18T21:50:08.092Z,61.49
2019-03-18T21:52:41.887Z,61.97
2019-03-18T21:55:40.267Z,61.98
2019-03-18T21:58:17.983Z,62.05
2019-03-18T22:00:52.437Z,62.15
2019-03-18T22:03:26.179Z,64.25
2019-03-18T22:06:00.978Z,52.61
2019-03-18T22:08:34.452Z,46.89
2019-03-18T22:11:07.800Z,48.42
2019-03-18T22:13:41.546Z,50.06
2019-03-18T22:16:15.209Z,51.36
2019-03-18T22:18:48.533Z,52.26
2019-03-18T22:21:21.745Z,53.13
2019-03-18T22:23:55.042Z,53.70
2019-03-18T22:26:29.421Z,54.42
2019-03-18T22:29:02.614Z,55.08
2019-03-18T22:31:35.858Z,55.70
2019-03-18T22:34:10.201Z,56.40
2019-03-18T22:36:43.470Z,56.86
2019-03-18T22:39:17.643Z,57.40
2019-03-18T22:41:51.025Z,57.78
2019-03-18T22:44:24.731Z,58.50
2019-03-18T22:46:57.972Z,58.82
2019-03-18T22:49:32.206Z,59.49
2019-03-18T22:52:05.588Z,59.68
2019-03-18T22:54:39.044Z,60.10
2019-03-18T22:57:12.411Z,60.49
2019-03-18T22:59:46.173Z,60.85
2019-03-18T23:02:20.241Z,61.08
2019-03-18T23:04:54.397Z,61.24
2019-03-18T23:07:29.124Z,61.50
2019-03-18T23:10:04.984Z,61.66
2019-03-18T23:12:38.763Z,62.07
2019-03-18T23:15:13.087Z,62.19
2019-03-18T23:17:48.648Z,63.46
2019-03-18T23:20:22.074Z,52.47
2019-03-18T23:22:55.764Z,46.86
2019-03-18T23:25:29.125Z,48.76
2019-03-18T23:28:02.582Z,50.33
2019-03-18T23:30:36.302Z,51.58
2019-03-18T23:33:09.611Z,52.43
2019-03-18T23:35:43.325Z,53.32
2019-03-18T23:38:17.008Z,54.08
2019-03-18T23:40:51.389Z,54.65
2019-03-18T23:43:25.156Z,55.54
2019-03-18T23:45:58.972Z,56.07
2019-03-18T23:48:34.897Z,56.65
2019-03-18T23:51:13.359Z,57.42
2019-03-18T23:53:47.365Z,57.85
2019-03-18T23:56:21.569Z,58.52
2019-03-18T23:58:55.449Z,58.77
